createdAt,value
2019-03-06T00:01:36.289Z,29.8
2019-03-06T00:04:42.241Z,29.9
2019-03-06T00:07:48.118Z,29.9
2019-03-06T00:10:54.059Z,29.9
2019-03-06T00:14:00.124Z,30
2019-03-06T00:17:06.099Z,30.1
2019-03-06T00:20:12.047Z,30.1
2019-03-06T00:23:18.080Z,30.2
2019-03-06T00:26:24.070Z,30.2
2019-03-06T00:29:30.023Z,30.3
2019-03-06T00:32:35.896Z,30.3
2019-03-06T00:35:41.843Z,30.4
2019-03-06T00:38:47.802Z,30.4
2019-03-06T00:41:53.867Z,30.4
2019-03-06T00:44:59.738Z,30.5
2019-03-06T00:48:05.740Z,30.5
2019-03-06T00:51:11.650Z,30.6
2019-03-06T00:54:17.594Z,30.6
2019-03-06T00:57:23.528Z,30.7
2019-03-06T01:00:29.519Z,30.7
2019-03-06T01:03:35.577Z,30.7
2019-03-06T01:06:41.541Z,30.9
2019-03-06T01:09:47.598Z,31
2019-03-06T01:12:53.535Z,31
2019-03-06T01:15:59.620Z,31
2019-03-06T01:19:05.679Z,31
2019-03-06T01:22:11.645Z,31.1
2019-03-06T01:25:17.583Z,31.1
2019-03-06T01:28:23.662Z,31.1
2019-03-06T01:31:29.624Z,31.1
2019-03-06T01:34:35.681Z,31.1
2019-03-06T01:37:41.610Z,31.1
2019-03-06T01:40:47.577Z,31
2019-03-06T01:43:53.560Z,31
2019-03-06T01:46:59.625Z,31
2019-03-06T01:50:08.535Z,31
2019-03-06T01:53:14.622Z,31
2019-03-06T01:56:20.498Z,31
2019-03-06T01:59:26.445Z,31
2019-03-06T02:02:32.505Z,31
2019-03-06T02:05:38.393Z,31
2019-03-06T02:08:44.514Z,30.9
2019-03-06T02:11:50.474Z,31
2019-03-06T02:14:56.535Z,30.9
2019-03-06T02:18:02.797Z,30.9
2019-03-06T02:21:08.858Z,30.8
2019-03-06T02:24:14.919Z,30.8
2019-03-06T02:27:20.811Z,30.7
2019-03-06T02:30:26.845Z,30.6
2019-03-06T02:33:35.977Z,30.6
2019-03-06T02:36:41.944Z,30.6
2019-03-06T02:39:48.013Z,30.5
2019-03-06T02:42:53.985Z,30.4
2019-03-06T02:46:00.130Z,30.3
2019-03-06T02:49:06.388Z,30.4
2019-03-06T02:52:12.553Z,30.3
2019-03-06T02:55:18.621Z,30.3
2019-03-06T02:58:24.686Z,30.2
2019-03-06T03:01:30.948Z,30.2
2019-03-06T03:04:37.722Z,30.1
2019-03-06T03:07:46.343Z,30.1
2019-03-06T03:10:52.401Z,30
2019-03-06T03:13:58.668Z,30
2019-03-06T03:17:04.857Z,30
2019-03-06T03:20:10.767Z,29.9
2019-03-06T03:23:16.853Z,29.9
2019-03-06T03:26:23.120Z,29.8
2019-03-06T03:29:29.903Z,29.8
2019-03-06T03:32:36.171Z,29.8
2019-03-06T03:35:42.233Z,29.7
2019-03-06T03:38:48.291Z,29.8
2019-03-06T03:41:55.582Z,29.7
2019-03-06T03:45:01.644Z,29.7
2019-03-06T03:48:07.705Z,29.6
2019-03-06T03:51:13.776Z,29.6
2019-03-06T03:54:20.041Z,29.6
2019-03-06T03:57:26.097Z,29.5
2019-03-06T04:00:32.117Z,29.5
2019-03-06T04:03:38.221Z,29.4
2019-03-06T04:06:44.179Z,29.3
2019-03-06T04:09:50.167Z,29.3
2019-03-06T04:12:56.409Z,29.2
2019-03-06T04:16:02.464Z,29.1
2019-03-06T04:19:08.424Z,29.1
2019-03-06T04:22:14.489Z,29
2019-03-06T04:25:20.866Z,29.1
2019-03-06T04:28:28.761Z,29.1
2019-03-06T04:31:34.817Z,28.9
2019-03-06T04:34:40.887Z,28.8
2019-03-06T04:37:47.154Z,28.7
2019-03-06T04:40:54.345Z,28.7
2019-03-06T04:44:00.380Z,28.6
2019-03-06T04:47:06.376Z,28.6
2019-03-06T04:50:12.644Z,28.6
2019-03-06T04:53:19.913Z,28.6
2019-03-06T04:56:25.929Z,28.5
2019-03-06T04:59:31.764Z,28.4
2019-03-06T05:02:38.112Z,28.4
2019-03-06T05:05:45.062Z,28.3
2019-03-06T05:08:51.044Z,28.3
2019-03-06T05:11:56.980Z,28.3
2019-03-06T05:15:02.966Z,28.2
2019-03-06T05:18:10.155Z,28.2
2019-03-06T05:21:16.216Z,28.1
2019-03-06T05:24:22.091Z,28.2
2019-03-06T05:27:28.136Z,28.1
2019-03-06T05:30:35.322Z,28
2019-03-06T05:33:41.202Z,28.1
2019-03-06T05:36:47.237Z,28.1
2019-03-06T05:39:53.402Z,28.8
2019-03-06T05:43:00.309Z,28.2
2019-03-06T05:46:07.306Z,29
2019-03-06T05:49:13.333Z,28.2
2019-03-06T05:52:19.497Z,28.2
2019-03-06T05:55:26.067Z,28.3
2019-03-06T05:58:31.956Z,28.1
2019-03-06T06:01:37.992Z,28.1
2019-03-06T06:04:44.186Z,28.1
2019-03-06T06:07:50.519Z,28
2019-03-06T06:10:56.477Z,28.2
2019-03-06T06:14:02.354Z,28.5
2019-03-06T06:17:08.601Z,28.1
2019-03-06T06:20:15.177Z,28
2019-03-06T06:23:21.134Z,28.1
2019-03-06T06:26:27.197Z,28.4
2019-03-06T06:29:33.463Z,28.3
2019-03-06T06:32:40.039Z,28.4
2019-03-06T06:35:46.104Z,28.1
2019-03-06T06:38:52.066Z,28.4
2019-03-06T06:41:58.324Z,28.1
2019-03-06T06:45:04.883Z,27.7
2019-03-06T06:48:10.861Z,27.8
2019-03-06T06:51:17.093Z,28.3
2019-03-06T06:54:23.295Z,27.7
2019-03-06T06:57:29.453Z,27.8
2019-03-06T07:00:39.100Z,27.8
2019-03-06T07:03:45.067Z,27.6
2019-03-06T07:06:50.991Z,28
2019-03-06T07:09:56.983Z,27.8
2019-03-06T07:13:03.253Z,28
2019-03-06T07:16:10.123Z,28.1
2019-03-06T07:19:16.186Z,28.2
2019-03-06T07:22:23.085Z,28.3
2019-03-06T07:25:30.900Z,28.7
2019-03-06T07:28:36.854Z,28.1
2019-03-06T07:31:42.796Z,28.2
2019-03-06T07:34:48.854Z,28.3
2019-03-06T07:37:55.530Z,28.3
2019-03-06T07:41:01.488Z,28.3
2019-03-06T07:44:07.446Z,28.2
2019-03-06T07:47:13.408Z,28
2019-03-06T07:50:19.344Z,28.4
2019-03-06T07:53:25.325Z,28.5
2019-03-06T07:56:31.285Z,28.2
2019-03-06T07:59:37.212Z,28.2
2019-03-06T08:02:43.307Z,28
2019-03-06T08:05:49.267Z,28
2019-03-06T08:08:55.227Z,28.1
2019-03-06T08:12:01.196Z,28.1
2019-03-06T08:15:08.591Z,28
2019-03-06T08:18:15.481Z,28
2019-03-06T08:21:22.766Z,28.2
2019-03-06T08:24:30.665Z,28
2019-03-06T08:27:36.923Z,28
2019-03-06T08:30:44.011Z,28.1
2019-03-06T08:33:52.845Z,28.7
2019-03-06T08:36:58.792Z,28.4
2019-03-06T08:40:04.745Z,29
2019-03-06T08:43:10.831Z,29.2
2019-03-06T08:46:16.794Z,29.1
2019-03-06T08:49:22.828Z,28.3
2019-03-06T08:52:28.810Z,28.9
2019-03-06T08:55:34.877Z,28.9
2019-03-06T08:58:40.939Z,29.1
2019-03-06T09:01:46.912Z,28.5
2019-03-06T09:05:03.095Z,28.1
2019-03-06T09:08:09.272Z,28.3
2019-03-06T09:11:15.443Z,28
2019-03-06T09:14:21.506Z,27.6
2019-03-06T09:17:27.447Z,27.9
2019-03-06T09:20:40.958Z,28
2019-03-06T09:23:46.941Z,28
2019-03-06T09:26:54.025Z,27.9
2019-03-06T09:30:01.971Z,28.4
2019-03-06T09:33:16.807Z,27.9
2019-03-06T09:36:22.731Z,27.8
2019-03-06T09:39:28.726Z,28.1
2019-03-06T09:42:34.801Z,28
2019-03-06T09:45:40.945Z,28.1
2019-03-06T09:48:47.004Z,27.9
2019-03-06T09:51:56.939Z,27.8
2019-03-06T09:55:03.535Z,28
2019-03-06T09:58:09.549Z,28.5
2019-03-06T10:01:15.531Z,28.6
2019-03-06T10:04:21.412Z,28.6
2019-03-06T10:07:28.094Z,29
2019-03-06T10:10:34.149Z,28.8
2019-03-06T10:14:00.587Z,28.6
2019-03-06T10:17:06.675Z,28.4
2019-03-06T10:20:12.719Z,29.2
2019-03-06T10:23:29.323Z,28.6
2019-03-06T10:26:35.309Z,28.4
2019-03-06T10:29:41.444Z,28.6
2019-03-06T10:32:47.727Z,28.4
2019-03-06T10:35:53.755Z,28.9
2019-03-06T10:38:59.838Z,28.6
2019-03-06T10:42:05.906Z,28.2
2019-03-06T10:45:13.701Z,28.4
2019-03-06T10:48:23.097Z,28.2
2019-03-06T10:51:31.000Z,28.1
2019-03-06T10:54:45.206Z,28.1
2019-03-06T10:57:51.362Z,28.2
2019-03-06T11:00:57.543Z,28.1
2019-03-06T11:04:03.588Z,28.1
2019-03-06T11:07:09.866Z,28.1
2019-03-06T11:10:25.539Z,28.1
2019-03-06T11:13:34.995Z,28.2
2019-03-06T11:16:42.807Z,28.3
2019-03-06T11:19:52.037Z,28.1
2019-03-06T11:22:58.096Z,28.1
2019-03-06T11:26:04.248Z,28.3
2019-03-06T11:29:10.421Z,28
2019-03-06T11:32:16.781Z,28
2019-03-06T11:35:26.636Z,28
2019-03-06T11:38:32.530Z,27.8
2019-03-06T11:41:38.654Z,27.9
2019-03-06T11:44:44.714Z,27.9
2019-03-06T11:47:52.518Z,27.6
2019-03-06T11:50:58.583Z,27.6
2019-03-06T11:54:04.656Z,27.8
2019-03-06T11:57:13.578Z,27.6
2019-03-06T12:00:22.478Z,27.7
2019-03-06T12:03:29.590Z,27.7
2019-03-06T12:06:36.679Z,26.9
2019-03-06T12:09:43.143Z,27.1
2019-03-06T12:12:49.218Z,27.1
2019-03-06T12:15:55.578Z,26.8
2019-03-06T12:19:02.786Z,26.8
2019-03-06T12:22:08.928Z,26.6
2019-03-06T12:25:14.988Z,26.6
2019-03-06T12:28:21.050Z,26.3
2019-03-06T12:31:27.232Z,26.2
2019-03-06T12:34:33.261Z,26.2
2019-03-06T12:37:47.530Z,26.3
2019-03-06T12:40:53.490Z,26.3
2019-03-06T12:44:00.577Z,26.2
2019-03-06T12:47:15.767Z,26
2019-03-06T12:50:21.828Z,26
2019-03-06T12:53:27.881Z,26
2019-03-06T12:56:33.956Z,25.8
2019-03-06T12:59:41.034Z,25.8
2019-03-06T13:02:47.099Z,25.6
2019-03-06T13:05:54.182Z,25.7
2019-03-06T13:09:00.254Z,25.5
2019-03-06T13:12:06.719Z,25.9
2019-03-06T13:15:12.872Z,25.5
2019-03-06T13:18:19.044Z,25.5
2019-03-06T13:21:29.011Z,25.1
2019-03-06T13:24:35.572Z,25.4
2019-03-06T13:27:41.764Z,25.3
2019-03-06T13:31:07.049Z,25.1
2019-03-06T13:34:14.125Z,25.1
2019-03-06T13:37:20.191Z,24.9
2019-03-06T13:40:26.253Z,24.9
2019-03-06T13:43:32.825Z,24.8
2019-03-06T13:46:38.907Z,24.7
2019-03-06T13:49:45.263Z,24.7
2019-03-06T13:52:52.656Z,24.6
2019-03-06T13:55:58.714Z,24.4
2019-03-06T13:59:04.875Z,24.9
2019-03-06T14:02:10.940Z,24.5
2019-03-06T14:05:17.100Z,24
2019-03-06T14:08:23.036Z,23.8
2019-03-06T14:11:29.257Z,23.6
2019-03-06T14:14:36.622Z,23.6
2019-03-06T14:17:42.689Z,23.3
2019-03-06T14:20:48.948Z,23.3
2019-03-06T14:23:55.110Z,23
2019-03-06T14:27:01.390Z,23.1
2019-03-06T14:30:07.456Z,23.1
2019-03-06T14:33:13.502Z,23.2
2019-03-06T14:36:20.688Z,23.4
2019-03-06T14:39:26.751Z,23
2019-03-06T14:42:33.118Z,23.4
2019-03-06T14:45:39.506Z,23.6
2019-03-06T14:48:45.552Z,23.8
2019-03-06T14:51:51.531Z,23.7
2019-03-06T14:54:57.539Z,23.9
2019-03-06T14:58:05.683Z,23.7
2019-03-06T15:01:11.619Z,23.5
2019-03-06T15:04:17.914Z,23.9
2019-03-06T15:07:24.382Z,23.8
2019-03-06T15:10:30.544Z,23.9
2019-03-06T15:13:45.929Z,23.7
2019-03-06T15:16:52.300Z,23.5
2019-03-06T15:19:59.089Z,23.5
2019-03-06T15:23:05.241Z,23.5
2019-03-06T15:26:11.710Z,23.7
2019-03-06T15:29:17.978Z,23.5
2019-03-06T15:32:24.239Z,23.4
2019-03-06T15:35:30.347Z,23.5
2019-03-06T15:38:36.668Z,23.4
2019-03-06T15:41:43.445Z,23.3
2019-03-06T15:44:49.507Z,23.2
2019-03-06T15:47:55.472Z,23.2
2019-03-06T15:51:03.784Z,23.1
2019-03-06T15:54:10.493Z,23.1
2019-03-06T15:57:16.523Z,23.1
2019-03-06T16:00:22.586Z,23
2019-03-06T16:03:28.545Z,23.1
2019-03-06T16:06:34.606Z,23.1
2019-03-06T16:09:40.695Z,23
2019-03-06T16:12:46.730Z,22.9
2019-03-06T16:15:53.522Z,23
2019-03-06T16:18:59.487Z,22.9
2019-03-06T16:22:05.743Z,23.1
2019-03-06T16:25:11.608Z,22.9
2019-03-06T16:28:17.762Z,23.1
2019-03-06T16:31:23.829Z,22.9
2019-03-06T16:34:29.885Z,22.9
2019-03-06T16:37:36.757Z,22.8
2019-03-06T16:40:42.728Z,22.8
2019-03-06T16:43:48.890Z,22.7
2019-03-06T16:46:54.843Z,22.7
2019-03-06T16:50:16.232Z,22.7
2019-03-06T16:53:22.429Z,22.7
2019-03-06T16:56:28.594Z,22.7
2019-03-06T16:59:37.221Z,22.6
2019-03-06T17:02:43.688Z,22.7
2019-03-06T17:05:49.755Z,22.6
2019-03-06T17:08:57.760Z,22.6
2019-03-06T17:12:03.820Z,22.6
2019-03-06T17:15:10.009Z,22.4
2019-03-06T17:18:15.987Z,22.2
2019-03-06T17:21:21.962Z,22.2
2019-03-06T17:24:28.578Z,22
2019-03-06T17:27:34.752Z,22
2019-03-06T17:30:40.956Z,21.9
2019-03-06T17:33:47.388Z,21.9
2019-03-06T17:36:53.502Z,21.8
2019-03-06T17:39:59.606Z,21.7
2019-03-06T17:43:05.766Z,21.7
2019-03-06T17:46:11.734Z,21.6
2019-03-06T17:49:17.905Z,21.6
2019-03-06T17:52:24.065Z,21.5
2019-03-06T17:55:30.941Z,21.6
2019-03-06T17:58:37.008Z,21.6
2019-03-06T18:01:43.062Z,21.7
2019-03-06T18:04:49.028Z,21.7
2019-03-06T18:07:57.440Z,21.7
2019-03-06T18:11:03.610Z,21.7
2019-03-06T18:14:09.876Z,21.8
2019-03-06T18:17:16.341Z,21.7
2019-03-06T18:20:22.412Z,21.9
2019-03-06T18:23:28.576Z,22
2019-03-06T18:26:36.795Z,21.9
2019-03-06T18:29:45.514Z,22
2019-03-06T18:32:51.670Z,22
2019-03-06T18:35:59.705Z,21.9
2019-03-06T18:39:06.364Z,22
2019-03-06T18:42:12.417Z,22
2019-03-06T18:45:18.486Z,21.9
2019-03-06T18:48:24.543Z,22
2019-03-06T18:51:30.598Z,22
2019-03-06T18:54:36.667Z,22
2019-03-06T18:57:42.935Z,21.9
2019-03-06T19:00:50.335Z,22
2019-03-06T19:03:56.487Z,22
2019-03-06T19:07:05.312Z,22
2019-03-06T19:10:11.478Z,22
2019-03-06T19:13:17.433Z,22
2019-03-06T19:16:23.498Z,22
2019-03-06T19:19:29.663Z,22
2019-03-06T19:22:36.661Z,22
2019-03-06T19:25:42.818Z,22
2019-03-06T19:28:48.879Z,22.1
2019-03-06T19:31:55.041Z,22.1
2019-03-06T19:35:01.308Z,22.1
2019-03-06T19:38:07.299Z,22.1
2019-03-06T19:41:13.327Z,22.1
2019-03-06T19:44:19.391Z,22.1
2019-03-06T19:47:25.552Z,22.1
2019-03-06T19:50:31.618Z,22.1
2019-03-06T19:53:38.601Z,22.1
2019-03-06T19:56:44.658Z,22
2019-03-06T19:59:50.728Z,22.1
2019-03-06T20:02:57.096Z,22
2019-03-06T20:06:03.165Z,22.2
2019-03-06T20:09:09.429Z,22.2
2019-03-06T20:12:15.423Z,22.2
2019-03-06T20:15:21.448Z,22.2
2019-03-06T20:18:27.512Z,22.2
2019-03-06T20:21:33.395Z,22.3
2019-03-06T20:24:40.557Z,22.3
2019-03-06T20:27:48.660Z,22.3
2019-03-06T20:30:56.674Z,22.4
2019-03-06T20:34:02.642Z,22.4
2019-03-06T20:37:08.793Z,22.5
2019-03-06T20:40:14.854Z,22.6
2019-03-06T20:43:20.924Z,22.8
2019-03-06T20:46:27.085Z,22.9
2019-03-06T20:49:33.251Z,22.9
2019-03-06T20:52:39.327Z,23
2019-03-06T20:55:46.299Z,23
2019-03-06T20:58:52.564Z,23.1
2019-03-06T21:02:01.389Z,23.2
2019-03-06T21:05:07.566Z,23.3
2019-03-06T21:08:16.279Z,23.2
2019-03-06T21:11:22.338Z,23.3
2019-03-06T21:14:28.509Z,23.4
2019-03-06T21:17:35.382Z,23.4
2019-03-06T21:20:42.132Z,23.5
2019-03-06T21:23:49.319Z,23.5
2019-03-06T21:26:55.307Z,23.6
2019-03-06T21:30:04.350Z,23.6
2019-03-06T21:33:10.298Z,23.6
2019-03-06T21:36:16.286Z,23.7
2019-03-06T21:39:22.321Z,23.7
2019-03-06T21:42:28.386Z,23.7
2019-03-06T21:45:34.656Z,23.7
2019-03-06T21:48:40.920Z,23.7
2019-03-06T21:51:47.084Z,23.8
2019-03-06T21:54:54.684Z,23.8
2019-03-06T21:58:03.411Z,23.8
2019-03-06T22:01:09.684Z,23.9
2019-03-06T22:04:18.441Z,23.9
2019-03-06T22:07:24.375Z,24
2019-03-06T22:10:30.426Z,24
2019-03-06T22:13:36.482Z,24
2019-03-06T22:16:43.610Z,24.1
2019-03-06T22:19:49.728Z,24.1
2019-03-06T22:22:55.903Z,24.2
2019-03-06T22:26:02.058Z,24.2
2019-03-06T22:29:08.126Z,24.2
2019-03-06T22:32:16.343Z,24.3
2019-03-06T22:35:22.507Z,24.3
2019-03-06T22:38:28.562Z,24.4
2019-03-06T22:41:34.530Z,24.4
2019-03-06T22:44:40.688Z,24.5
2019-03-06T22:47:49.733Z,24.5
2019-03-06T22:50:55.703Z,24.5
2019-03-06T22:54:04.787Z,24.5
2019-03-06T22:57:10.877Z,24.5
2019-03-06T23:00:18.170Z,24.6
2019-03-06T23:03:24.332Z,24.6
2019-03-06T23:06:33.060Z,24.7
2019-03-06T23:09:39.117Z,24.6
2019-03-06T23:12:45.185Z,24.7
2019-03-06T23:15:51.171Z,24.7
2019-03-06T23:18:59.964Z,24.6
2019-03-06T23:22:06.033Z,24.7
2019-03-06T23:25:12.096Z,24.7
2019-03-06T23:28:20.203Z,24.8
2019-03-06T23:31:26.260Z,24.8
2019-03-06T23:34:33.548Z,24.8
2019-03-06T23:37:39.613Z,24.8
2019-03-06T23:40:45.485Z,24.8
2019-03-06T23:43:51.630Z,24.9
2019-03-06T23:46:57.596Z,24.9
2019-03-06T23:50:03.657Z,25
2019-03-06T23:53:10.099Z,25
2019-03-06T23:56:17.312Z,25
2019-03-06T23:59:23.269Z,25
